sensor_id;sensor_type;location;lat;lon;timestamp;pressure;altitude;pressure_sealevel;temperature;humidity
52983;BME280;48698;45.736;13.926;2024-02-23T00:04:23;96667.69;;;7.47;100.00
52983;BME280;48698;45.736;13.926;2024-02-23T00:09:27;96711.53;;;7.82;100.00
52983;BME280;48698;45.736;13.926;2024-02-23T00:14:40;96575.78;;;7.05;100.00
52983;BME280;48698;45.736;13.926;2024-02-23T00:19:45;96727.41;;;7.98;100.00
52983;BME280;48698;45.736;13.926;2024-02-23T00:24:49;96710.19;;;7.91;100.00
52983;BME280;48698;45.736;13.926;2024-02-23T00:29:52;96701.63;;;7.86;100.00
52983;BME280;48698;45.736;13.926;2024-02-23T00:34:57;96633.78;;;7.55;100.00
52983;BME280;48698;45.736;13.926;2024-02-23T00:40:02;96667.09;;;7.73;100.00
52983;BME280;48698;45.736;13.926;2024-02-23T00:45:07;96655.31;;;7.79;100.00
52983;BME280;48698;45.736;13.926;2024-02-23T00:50:11;96628.16;;;7.61;100.00
52983;BME280;48698;45.736;13.926;2024-02-23T00:55:15;96609.66;;;7.61;100.00
52983;BME280;48698;45.736;13.926;2024-02-23T01:00:18;96653.69;;;7.92;100.00
52983;BME280;48698;45.736;13.926;2024-02-23T01:05:23;96679.47;;;8.04;100.00
52983;BME280;48698;45.736;13.926;2024-02-23T01:10:26;96672.66;;;8.00;100.00
52983;BME280;48698;45.736;13.926;2024-02-23T01:15:30;96651.34;;;7.88;100.00
52983;BME280;48698;45.736;13.926;2024-02-23T01:20:35;96669.31;;;7.97;100.00
52983;BME280;48698;45.736;13.926;2024-02-23T01:25:38;96637.50;;;7.82;100.00
52983;BME280;48698;45.736;13.926;2024-02-23T01:30:42;96624.63;;;7.92;100.00
52983;BME280;48698;45.736;13.926;2024-02-23T01:35:46;96627.78;;;7.99;100.00
52983;BME280;48698;45.736;13.926;2024-02-23T01:40:54;96623.34;;;7.99;100.00
52983;BME280;48698;45.736;13.926;2024-02-23T01:45:57;96617.06;;;8.02;100.00
52983;BME280;48698;45.736;13.926;2024-02-23T01:51:02;96584.16;;;7.76;100.00
52983;BME280;48698;45.736;13.926;2024-02-23T01:56:06;96622.66;;;8.11;100.00
52983;BME280;48698;45.736;13.926;2024-02-23T02:01:10;96609.63;;;8.08;100.00
52983;BME280;48698;45.736;13.926;2024-02-23T02:06:14;96584.81;;;7.95;100.00
52983;BME280;48698;45.736;13.926;2024-02-23T02:11:18;96578.69;;;7.95;100.00
52983;BME280;48698;45.736;13.926;2024-02-23T02:16:22;96579.34;;;7.98;100.00
52983;BME280;48698;45.736;13.926;2024-02-23T02:21:25;96503.72;;;7.50;100.00
52983;BME280;48698;45.736;13.926;2024-02-23T02:26:29;96579.00;;;8.04;100.00
52983;BME280;48698;45.736;13.926;2024-02-23T02:31:33;96569.28;;;8.05;100.00
52983;BME280;48698;45.736;13.926;2024-02-23T02:36:40;96495.25;;;7.59;100.00
52983;BME280;48698;45.736;13.926;2024-02-23T02:41:44;96563.81;;;8.08;100.00
52983;BME280;48698;45.736;13.926;2024-02-23T02:46:48;96422.50;;;7.24;100.00
52983;BME280;48698;45.736;13.926;2024-02-23T02:51:52;96434.16;;;7.36;100.00
52983;BME280;48698;45.736;13.926;2024-02-23T02:56:55;96439.94;;;7.42;100.00
52983;BME280;48698;45.736;13.926;2024-02-23T03:01:58;96527.16;;;8.02;100.00
52983;BME280;48698;45.736;13.926;2024-02-23T03:07:02;96462.56;;;7.76;100.00
52983;BME280;48698;45.736;13.926;2024-02-23T03:12:05;96481.25;;;7.89;100.00
52983;BME280;48698;45.736;13.926;2024-02-23T03:17:09;96493.59;;;7.88;100.00
52983;BME280;48698;45.736;13.926;2024-02-23T03:22:13;96476.25;;;7.68;100.00
52983;BME280;48698;45.736;13.926;2024-02-23T03:27:16;96503.84;;;7.78;100.00
52983;BME280;48698;45.736;13.926;2024-02-23T03:32:20;96489.16;;;7.89;100.00
52983;BME280;48698;45.736;13.926;2024-02-23T03:37:23;96483.09;;;7.87;100.00
52983;BME280;48698;45.736;13.926;2024-02-23T03:42:27;96494.47;;;8.03;100.00
52983;BME280;48698;45.736;13.926;2024-02-23T03:47:30;96455.50;;;7.76;100.00
52983;BME280;48698;45.736;13.926;2024-02-23T03:52:34;96500.16;;;8.11;100.00
52983;BME280;48698;45.736;13.926;2024-02-23T03:57:38;96491.81;;;8.03;100.00
52983;BME280;48698;45.736;13.926;2024-02-23T04:02:41;96435.97;;;7.79;100.00
52983;BME280;48698;45.736;13.926;2024-02-23T04:07:45;96484.69;;;8.05;100.00
52983;BME280;48698;45.736;13.926;2024-02-23T04:12:48;96410.28;;;7.67;100.00
52983;BME280;48698;45.736;13.926;2024-02-23T04:17:51;96455.84;;;8.00;100.00
52983;BME280;48698;45.736;13.926;2024-02-23T04:22:55;96418.72;;;7.88;100.00
52983;BME280;48698;45.736;13.926;2024-02-23T04:27:58;96367.69;;;7.57;100.00
52983;BME280;48698;45.736;13.926;2024-02-23T04:33:02;96473.91;;;8.08;100.00
52983;BME280;48698;45.736;13.926;2024-02-23T04:38:05;96440.00;;;8.00;100.00
52983;BME280;48698;45.736;13.926;2024-02-23T04:43:09;96441.13;;;8.10;100.00
52983;BME280;48698;45.736;13.926;2024-02-23T04:48:13;96410.84;;;8.02;100.00
52983;BME280;48698;45.736;13.926;2024-02-23T04:53:16;96411.72;;;7.87;100.00
52983;BME280;48698;45.736;13.926;2024-02-23T04:58:19;96423.69;;;8.08;100.00
52983;BME280;48698;45.736;13.926;2024-02-23T05:03:24;96316.53;;;7.44;100.00
52983;BME280;48698;45.736;13.926;2024-02-23T05:08:28;96283.69;;;7.34;100.00
52983;BME280;48698;45.736;13.926;2024-02-23T05:13:33;96329.72;;;7.74;100.00
52983;BME280;48698;45.736;13.926;2024-02-23T05:18:37;96342.28;;;7.85;100.00
52983;BME280;48698;45.736;13.926;2024-02-23T05:23:40;96403.47;;;8.07;100.00
52983;BME280;48698;45.736;13.926;2024-02-23T05:28:44;96355.66;;;7.96;100.00
52983;BME280;48698;45.736;13.926;2024-02-23T05:33:48;96385.28;;;8.30;100.00
52983;BME280;48698;45.736;13.926;2024-02-23T05:38:51;96385.16;;;8.46;100.00
52983;BME280;48698;45.736;13.926;2024-02-23T05:43:55;96336.41;;;8.22;100.00
52983;BME280;48698;45.736;13.926;2024-02-23T05:48:59;96321.03;;;8.14;100.00
52983;BME280;48698;45.736;13.926;2024-02-23T05:54:03;96318.47;;;8.13;100.00
52983;BME280;48698;45.736;13.926;2024-02-23T05:59:07;96340.00;;;7.93;100.00
52983;BME280;48698;45.736;13.926;2024-02-23T06:04:10;96355.31;;;8.02;100.00
52983;BME280;48698;45.736;13.926;2024-02-23T06:09:14;96315.91;;;7.83;100.00
52983;BME280;48698;45.736;13.926;2024-02-23T06:14:17;96316.97;;;7.95;100.00
52983;BME280;48698;45.736;13.926;2024-02-23T06:19:21;96361.06;;;8.22;100.00
52983;BME280;48698;45.736;13.926;2024-02-23T06:24:24;96347.38;;;8.30;100.00
52983;BME280;48698;45.736;13.926;2024-02-23T06:29:27;96313.56;;;8.07;100.00
52983;BME280;48698;45.736;13.926;2024-02-23T06:34:34;96280.72;;;8.11;100.00
52983;BME280;48698;45.736;13.926;2024-02-23T06:39:38;96248.00;;;8.26;100.00
52983;BME280;48698;45.736;13.926;2024-02-23T06:44:41;96267.66;;;8.36;100.00
52983;BME280;48698;45.736;13.926;2024-02-23T06:49:46;96300.69;;;8.57;100.00
52983;BME280;48698;45.736;13.926;2024-02-23T06:54:49;96210.31;;;8.22;100.00
52983;BME280;48698;45.736;13.926;2024-02-23T06:59:53;96099.94;;;7.58;100.00
52983;BME280;48698;45.736;13.926;2024-02-23T07:04:56;96248.28;;;8.62;100.00
52983;BME280;48698;45.736;13.926;2024-02-23T07:10:05;96264.72;;;8.67;100.00
52983;BME280;48698;45.736;13.926;2024-02-23T07:15:08;96284.84;;;8.97;100.00
52983;BME280;48698;45.736;13.926;2024-02-23T07:20:13;96288.03;;;9.02;100.00
52983;BME280;48698;45.736;13.926;2024-02-23T07:25:18;96215.31;;;8.68;100.00
52983;BME280;48698;45.736;13.926;2024-02-23T07:30:25;96274.44;;;9.33;100.00
52983;BME280;48698;45.736;13.926;2024-02-23T07:35:29;96234.47;;;9.36;100.00
52983;BME280;48698;45.736;13.926;2024-02-23T07:40:32;96214.56;;;9.56;100.00
52983;BME280;48698;45.736;13.926;2024-02-23T07:45:35;96205.88;;;9.66;100.00
52983;BME280;48698;45.736;13.926;2024-02-23T07:50:40;96223.94;;;9.98;100.00
52983;BME280;48698;45.736;13.926;2024-02-23T07:55:44;96204.25;;;9.76;100.00
52983;BME280;48698;45.736;13.926;2024-02-23T08:00:47;96197.69;;;9.69;100.00
52983;BME280;48698;45.736;13.926;2024-02-23T08:05:51;96188.22;;;9.78;100.00
52983;BME280;48698;45.736;13.926;2024-02-23T08:10:55;96185.63;;;10.02;100.00
52983;BME280;48698;45.736;13.926;2024-02-23T08:15:58;96082.63;;;9.35;100.00
52983;BME280;48698;45.736;13.926;2024-02-23T08:21:02;96207.00;;;9.88;100.00
52983;BME280;48698;45.736;13.926;2024-02-23T08:26:06;96195.44;;;9.88;100.00
52983;BME280;48698;45.736;13.926;2024-02-23T08:31:10;96149.41;;;9.90;100.00
52983;BME280;48698;45.736;13.926;2024-02-23T08:36:13;96172.59;;;9.99;100.00
52983;BME280;48698;45.736;13.926;2024-02-23T08:41:16;96112.66;;;9.72;100.00
52983;BME280;48698;45.736;13.926;2024-02-23T08:46:21;96111.16;;;10.05;100.00
52983;BME280;48698;45.736;13.926;2024-02-23T08:51:25;96113.59;;;9.84;100.00
52983;BME280;48698;45.736;13.926;2024-02-23T08:56:29;96032.16;;;9.50;100.00
52983;BME280;48698;45.736;13.926;2024-02-23T09:01:32;96122.91;;;9.90;100.00
52983;BME280;48698;45.736;13.926;2024-02-23T09:06:36;96145.38;;;9.97;100.00
52983;BME280;48698;45.736;13.926;2024-02-23T09:11:42;96053.34;;;9.50;100.00
52983;BME280;48698;45.736;13.926;2024-02-23T09:16:45;96104.91;;;10.06;100.00
52983;BME280;48698;45.736;13.926;2024-02-23T09:21:50;96030.38;;;9.74;100.00
52983;BME280;48698;45.736;13.926;2024-02-23T09:26:59;95990.31;;;9.42;100.00
52983;BME280;48698;45.736;13.926;2024-02-23T09:32:03;96059.81;;;10.06;100.00
52983;BME280;48698;45.736;13.926;2024-02-23T09:37:08;96077.50;;;10.18;100.00
52983;BME280;48698;45.736;13.926;2024-02-23T09:42:12;96027.13;;;10.05;100.00
52983;BME280;48698;45.736;13.926;2024-02-23T09:47:16;96046.09;;;10.35;100.00
52983;BME280;48698;45.736;13.926;2024-02-23T09:52:21;96081.31;;;10.37;100.00
52983;BME280;48698;45.736;13.926;2024-02-23T09:57:31;96079.75;;;10.35;100.00
52983;BME280;48698;45.736;13.926;2024-02-23T10:02:35;96046.50;;;9.95;100.00
52983;BME280;48698;45.736;13.926;2024-02-23T10:07:39;96071.06;;;10.09;100.00
52983;BME280;48698;45.736;13.926;2024-02-23T10:12:42;96056.91;;;10.21;100.00
52983;BME280;48698;45.736;13.926;2024-02-23T10:17:46;96074.50;;;10.46;100.00
52983;BME280;48698;45.736;13.926;2024-02-23T10:22:49;96040.47;;;10.51;100.00
52983;BME280;48698;45.736;13.926;2024-02-23T10:27:53;96019.47;;;10.48;100.00
52983;BME280;48698;45.736;13.926;2024-02-23T10:32:57;96051.53;;;10.80;100.00
52983;BME280;48698;45.736;13.926;2024-02-23T10:38:01;96025.69;;;10.71;100.00
52983;BME280;48698;45.736;13.926;2024-02-23T10:43:10;95967.38;;;10.47;100.00
52983;BME280;48698;45.736;13.926;2024-02-23T10:48:16;96041.03;;;11.01;100.00
52983;BME280;48698;45.736;13.926;2024-02-23T10:53:21;95975.13;;;10.72;100.00
52983;BME280;48698;45.736;13.926;2024-02-23T10:58:26;96029.09;;;11.17;100.00
52983;BME280;48698;45.736;13.926;2024-02-23T11:03:31;96008.94;;;11.15;100.00
52983;BME280;48698;45.736;13.926;2024-02-23T11:08:36;95960.16;;;10.82;100.00
52983;BME280;48698;45.736;13.926;2024-02-23T11:13:40;96019.22;;;11.19;100.00
52983;BME280;48698;45.736;13.926;2024-02-23T11:18:46;96024.50;;;11.30;100.00
52983;BME280;48698;45.736;13.926;2024-02-23T11:23:49;95714.56;;;9.56;100.00
52983;BME280;48698;45.736;13.926;2024-02-23T11:28:54;95917.09;;;10.79;100.00
52983;BME280;48698;45.736;13.926;2024-02-23T11:33:57;95911.78;;;10.79;100.00
52983;BME280;48698;45.736;13.926;2024-02-23T11:39:02;95997.56;;;11.24;100.00
52983;BME280;48698;45.736;13.926;2024-02-23T11:44:05;95920.81;;;10.43;100.00
52983;BME280;48698;45.736;13.926;2024-02-23T11:49:10;95930.09;;;10.49;100.00
52983;BME280;48698;45.736;13.926;2024-02-23T11:54:14;95982.59;;;10.67;100.00
52983;BME280;48698;45.736;13.926;2024-02-23T11:59:19;95979.94;;;11.01;100.00
52983;BME280;48698;45.736;13.926;2024-02-23T12:04:26;95989.97;;;11.08;100.00
52983;BME280;48698;45.736;13.926;2024-02-23T12:09:31;95906.47;;;10.57;100.00
52983;BME280;48698;45.736;13.926;2024-02-23T12:14:36;95885.34;;;10.44;100.00
52983;BME280;48698;45.736;13.926;2024-02-23T12:19:40;95954.84;;;11.16;100.00
52983;BME280;48698;45.736;13.926;2024-02-23T12:24:45;95927.19;;;11.07;100.00
52983;BME280;48698;45.736;13.926;2024-02-23T12:29:55;95947.09;;;11.24;100.00
52983;BME280;48698;45.736;13.926;2024-02-23T12:34:58;95934.91;;;11.21;100.00
52983;BME280;48698;45.736;13.926;2024-02-23T12:40:02;95920.75;;;11.32;100.00
52983;BME280;48698;45.736;13.926;2024-02-23T12:45:05;95820.44;;;10.70;100.00
52983;BME280;48698;45.736;13.926;2024-02-23T12:50:10;95838.47;;;11.10;100.00
52983;BME280;48698;45.736;13.926;2024-02-23T12:55:14;95878.00;;;11.24;100.00
52983;BME280;48698;45.736;13.926;2024-02-23T13:00:18;95877.13;;;11.34;100.00
52983;BME280;48698;45.736;13.926;2024-02-23T13:05:21;95874.38;;;11.57;100.00
52983;BME280;48698;45.736;13.926;2024-02-23T13:10:25;95862.47;;;11.51;100.00
52983;BME280;48698;45.736;13.926;2024-02-23T13:15:28;95876.31;;;11.66;100.00
52983;BME280;48698;45.736;13.926;2024-02-23T13:20:32;95859.97;;;11.70;100.00
52983;BME280;48698;45.736;13.926;2024-02-23T13:25:35;95852.75;;;11.72;100.00
52983;BME280;48698;45.736;13.926;2024-02-23T13:30:39;95776.28;;;11.01;100.00
52983;BME280;48698;45.736;13.926;2024-02-23T13:35:43;95892.56;;;11.40;100.00
52983;BME280;48698;45.736;13.926;2024-02-23T13:40:47;95882.09;;;11.28;100.00
52983;BME280;48698;45.736;13.926;2024-02-23T13:45:52;95809.00;;;11.02;100.00
52983;BME280;48698;45.736;13.926;2024-02-23T13:50:55;95830.94;;;11.15;100.00
52983;BME280;48698;45.736;13.926;2024-02-23T13:55:59;95829.16;;;11.04;100.00
52983;BME280;48698;45.736;13.926;2024-02-23T14:01:04;95895.78;;;11.23;100.00
52983;BME280;48698;45.736;13.926;2024-02-23T14:06:08;95879.72;;;11.14;100.00
52983;BME280;48698;45.736;13.926;2024-02-23T14:11:11;95889.78;;;10.99;100.00
52983;BME280;48698;45.736;13.926;2024-02-23T14:16:15;95901.75;;;10.94;100.00
52983;BME280;48698;45.736;13.926;2024-02-23T14:21:19;95870.50;;;10.75;100.00
52983;BME280;48698;45.736;13.926;2024-02-23T14:26:24;95828.16;;;10.51;100.00
52983;BME280;48698;45.736;13.926;2024-02-23T14:31:28;95866.50;;;10.80;100.00
52983;BME280;48698;45.736;13.926;2024-02-23T14:36:31;95732.66;;;9.84;100.00
52983;BME280;48698;45.736;13.926;2024-02-23T14:41:37;95856.00;;;10.68;100.00
52983;BME280;48698;45.736;13.926;2024-02-23T14:46:41;95800.94;;;10.27;100.00
52983;BME280;48698;45.736;13.926;2024-02-23T14:51:45;95872.09;;;10.66;100.00
52983;BME280;48698;45.736;13.926;2024-02-23T14:56:51;95877.59;;;10.74;100.00
52983;BME280;48698;45.736;13.926;2024-02-23T15:01:54;95816.53;;;10.74;100.00
52983;BME280;48698;45.736;13.926;2024-02-23T15:06:58;95763.00;;;10.58;100.00
52983;BME280;48698;45.736;13.926;2024-02-23T15:12:01;95671.84;;;10.48;100.00
52983;BME280;48698;45.736;13.926;2024-02-23T15:17:05;95745.22;;;11.13;100.00
52983;BME280;48698;45.736;13.926;2024-02-23T15:22:09;95707.03;;;10.93;100.00
52983;BME280;48698;45.736;13.926;2024-02-23T15:27:18;95685.47;;;11.07;100.00
52983;BME280;48698;45.736;13.926;2024-02-23T15:32:22;95729.69;;;11.29;100.00
52983;BME280;48698;45.736;13.926;2024-02-23T15:37:25;95748.66;;;11.24;100.00
52983;BME280;48698;45.736;13.926;2024-02-23T15:42:29;95670.25;;;10.88;100.00
52983;BME280;48698;45.736;13.926;2024-02-23T15:47:33;95519.19;;;10.01;100.00
52983;BME280;48698;45.736;13.926;2024-02-23T15:52:37;95744.97;;;11.16;100.00
52983;BME280;48698;45.736;13.926;2024-02-23T15:57:41;95705.94;;;10.96;100.00
52983;BME280;48698;45.736;13.926;2024-02-23T16:02:45;95735.59;;;11.01;100.00
52983;BME280;48698;45.736;13.926;2024-02-23T16:07:49;95676.16;;;10.60;100.00
52983;BME280;48698;45.736;13.926;2024-02-23T16:12:52;95693.72;;;10.72;100.00
52983;BME280;48698;45.736;13.926;2024-02-23T16:17:56;95639.31;;;10.35;100.00
52983;BME280;48698;45.736;13.926;2024-02-23T16:23:00;95790.00;;;10.74;100.00
52983;BME280;48698;45.736;13.926;2024-02-23T16:28:05;95708.34;;;10.24;100.00
52983;BME280;48698;45.736;13.926;2024-02-23T16:33:09;95632.66;;;9.75;100.00
52983;BME280;48698;45.736;13.926;2024-02-23T16:38:13;95724.09;;;10.36;100.00
52983;BME280;48698;45.736;13.926;2024-02-23T16:43:16;95713.34;;;10.49;100.00
52983;BME280;48698;45.736;13.926;2024-02-23T16:48:20;95758.56;;;10.90;100.00
52983;BME280;48698;45.736;13.926;2024-02-23T16:53:23;95757.63;;;10.80;100.00
52983;BME280;48698;45.736;13.926;2024-02-23T16:58:27;95751.84;;;10.86;100.00
52983;BME280;48698;45.736;13.926;2024-02-23T17:03:36;95764.38;;;10.84;100.00
52983;BME280;48698;45.736;13.926;2024-02-23T17:08:39;95758.38;;;10.82;100.00
52983;BME280;48698;45.736;13.926;2024-02-23T17:13:43;95751.69;;;10.56;100.00
52983;BME280;48698;45.736;13.926;2024-02-23T17:18:47;95748.59;;;10.40;100.00
52983;BME280;48698;45.736;13.926;2024-02-23T17:23:50;95797.25;;;10.72;100.00
52983;BME280;48698;45.736;13.926;2024-02-23T17:28:54;95716.66;;;10.19;100.00
52983;BME280;48698;45.736;13.926;2024-02-23T17:33:57;95837.94;;;10.73;100.00
52983;BME280;48698;45.736;13.926;2024-02-23T17:39:01;95826.59;;;10.60;100.00
52983;BME280;48698;45.736;13.926;2024-02-23T17:44:04;95823.09;;;10.48;100.00
52983;BME280;48698;45.736;13.926;2024-02-23T17:49:08;95814.19;;;10.16;100.00
52983;BME280;48698;45.736;13.926;2024-02-23T17:54:12;95871.59;;;10.17;100.00
52983;BME280;48698;45.736;13.926;2024-02-23T17:59:16;95898.47;;;10.23;100.00
52983;BME280;48698;45.736;13.926;2024-02-23T18:04:19;95928.38;;;10.25;100.00
52983;BME280;48698;45.736;13.926;2024-02-23T18:09:25;95954.22;;;8.92;100.00
52983;BME280;48698;45.736;13.926;2024-02-23T18:14:29;95965.50;;;8.58;100.00
52983;BME280;48698;45.736;13.926;2024-02-23T18:19:35;96030.06;;;8.80;100.00
52983;BME280;48698;45.736;13.926;2024-02-23T18:24:39;95988.56;;;8.43;100.00
52983;BME280;48698;45.736;13.926;2024-02-23T18:29:44;95998.72;;;8.37;100.00
52983;BME280;48698;45.736;13.926;2024-02-23T18:34:48;96059.78;;;8.46;100.00
52983;BME280;48698;45.736;13.926;2024-02-23T18:39:51;95990.19;;;8.19;100.00
52983;BME280;48698;45.736;13.926;2024-02-23T18:44:56;96058.06;;;8.32;100.00
52983;BME280;48698;45.736;13.926;2024-02-23T18:50:00;96043.72;;;8.22;100.00
52983;BME280;48698;45.736;13.926;2024-02-23T18:55:04;96076.88;;;8.28;100.00
52983;BME280;48698;45.736;13.926;2024-02-23T19:00:08;96084.34;;;8.21;100.00
52983;BME280;48698;45.736;13.926;2024-02-23T19:05:14;96094.94;;;8.21;100.00
52983;BME280;48698;45.736;13.926;2024-02-23T19:10:18;96099.16;;;8.24;100.00
52983;BME280;48698;45.736;13.926;2024-02-23T19:15:21;96140.69;;;8.36;100.00
52983;BME280;48698;45.736;13.926;2024-02-23T19:20:25;96136.94;;;8.53;100.00
52983;BME280;48698;45.736;13.926;2024-02-23T19:25:28;96137.91;;;8.64;100.00
52983;BME280;48698;45.736;13.926;2024-02-23T19:30:32;96122.03;;;8.64;100.00
52983;BME280;48698;45.736;13.926;2024-02-23T19:35:35;96139.63;;;8.78;100.00
52983;BME280;48698;45.736;13.926;2024-02-23T19:40:41;96137.75;;;8.41;100.00
52983;BME280;48698;45.736;13.926;2024-02-23T19:45:44;96157.44;;;8.49;100.00
52983;BME280;48698;45.736;13.926;2024-02-23T19:50:50;96170.75;;;8.21;100.00
52983;BME280;48698;45.736;13.926;2024-02-23T19:55:54;96170.00;;;8.19;100.00
52983;BME280;48698;45.736;13.926;2024-02-23T20:00:58;96198.81;;;8.23;100.00
52983;BME280;48698;45.736;13.926;2024-02-23T20:06:07;96197.94;;;8.23;100.00
52983;BME280;48698;45.736;13.926;2024-02-23T20:11:18;96106.19;;;7.84;100.00
52983;BME280;48698;45.736;13.926;2024-02-23T20:16:22;96143.00;;;7.87;100.00
52983;BME280;48698;45.736;13.926;2024-02-23T20:21:26;96197.88;;;8.10;100.00
52983;BME280;48698;45.736;13.926;2024-02-23T20:26:30;96188.91;;;8.13;100.00
52983;BME280;48698;45.736;13.926;2024-02-23T20:31:34;96146.06;;;8.08;100.00
52983;BME280;48698;45.736;13.926;2024-02-23T20:36:40;96163.88;;;7.92;100.00
52983;BME280;48698;45.736;13.926;2024-02-23T20:41:43;96199.59;;;8.11;100.00
52983;BME280;48698;45.736;13.926;2024-02-23T20:46:50;96220.34;;;8.17;100.00
52983;BME280;48698;45.736;13.926;2024-02-23T20:51:53;96116.22;;;7.38;100.00
52983;BME280;48698;45.736;13.926;2024-02-23T20:57:17;96242.75;;;8.12;100.00
52983;BME280;48698;45.736;13.926;2024-02-23T21:02:21;96260.94;;;8.16;100.00
52983;BME280;48698;45.736;13.926;2024-02-23T21:07:25;96259.69;;;8.22;100.00
52983;BME280;48698;45.736;13.926;2024-02-23T21:12:29;96233.31;;;7.94;100.00
52983;BME280;48698;45.736;13.926;2024-02-23T21:17:33;96244.44;;;8.13;100.00
52983;BME280;48698;45.736;13.926;2024-02-23T21:22:37;96261.53;;;8.21;100.00
52983;BME280;48698;45.736;13.926;2024-02-23T21:27:41;96279.19;;;8.21;100.00
52983;BME280;48698;45.736;13.926;2024-02-23T21:32:45;96279.47;;;8.16;100.00
52983;BME280;48698;45.736;13.926;2024-02-23T21:37:51;96275.75;;;8.19;100.00
52983;BME280;48698;45.736;13.926;2024-02-23T21:42:55;96276.53;;;8.21;100.00
52983;BME280;48698;45.736;13.926;2024-02-23T21:47:58;96279.56;;;8.15;100.00
52983;BME280;48698;45.736;13.926;2024-02-23T21:53:03;96195.06;;;7.58;100.00
52983;BME280;48698;45.736;13.926;2024-02-23T21:58:07;96266.75;;;7.95;100.00
52983;BME280;48698;45.736;13.926;2024-02-23T22:03:11;96289.19;;;8.16;100.00
52983;BME280;48698;45.736;13.926;2024-02-23T22:08:16;96262.19;;;8.11;100.00
52983;BME280;48698;45.736;13.926;2024-02-23T22:13:19;96261.34;;;8.10;100.00
52983;BME280;48698;45.736;13.926;2024-02-23T22:18:23;96261.16;;;8.13;100.00
52983;BME280;48698;45.736;13.926;2024-02-23T22:23:26;96236.69;;;8.10;100.00
52983;BME280;48698;45.736;13.926;2024-02-23T22:28:30;96259.47;;;7.98;100.00
52983;BME280;48698;45.736;13.926;2024-02-23T22:33:33;96276.56;;;8.07;100.00
52983;BME280;48698;45.736;13.926;2024-02-23T22:38:37;96289.50;;;8.11;100.00
52983;BME280;48698;45.736;13.926;2024-02-23T22:43:43;96215.72;;;7.52;100.00
52983;BME280;48698;45.736;13.926;2024-02-23T22:48:47;96276.59;;;7.78;100.00
52983;BME280;48698;45.736;13.926;2024-02-23T22:53:51;96249.28;;;7.50;100.00
52983;BME280;48698;45.736;13.926;2024-02-23T22:58:54;96316.69;;;7.99;100.00
52983;BME280;48698;45.736;13.926;2024-02-23T23:03:58;96313.75;;;8.04;100.00
52983;BME280;48698;45.736;13.926;2024-02-23T23:09:01;96336.63;;;8.05;100.00
52983;BME280;48698;45.736;13.926;2024-02-23T23:14:05;96339.59;;;7.99;100.00
52983;BME280;48698;45.736;13.926;2024-02-23T23:19:09;96319.06;;;7.75;100.00
52983;BME280;48698;45.736;13.926;2024-02-23T23:24:14;96226.13;;;7.11;100.00
52983;BME280;48698;45.736;13.926;2024-02-23T23:29:18;96333.44;;;7.56;100.00
52983;BME280;48698;45.736;13.926;2024-02-23T23:34:21;96319.19;;;7.44;100.00
52983;BME280;48698;45.736;13.926;2024-02-23T23:39:26;96278.19;;;7.09;100.00
52983;BME280;48698;45.736;13.926;2024-02-23T23:44:29;96343.47;;;7.21;100.00
52983;BME280;48698;45.736;13.926;2024-02-23T23:49:34;96350.97;;;7.13;100.00
52983;BME280;48698;45.736;13.926;2024-02-23T23:54:37;96361.97;;;7.05;100.00
52983;BME280;48698;45.736;13.926;2024-02-23T23:59:41;96402.97;;;7.26;100.00
